Meteo Giornale » Osservazioni meteo Stati Uniti (USA) » Lawrenceville-Vincennes
ore: 23:53 - Osservazioni Meteo Lawrenceville-Vincennes
Lat. 38° 45' N Lon. 87° 35' W Alt. 131 metri s.l.m.
23 °C
Sereno
Temp. 24 Ore
21 °C
37 °C
Nord
0 Km/h
Dew point 21 °C
Umidità 88 %
Visibilità 10 Km
Il sole sorge alle ore 06:19
Il sole tramonta alle ore 19:20
| Data e Ora | Cielo e Fenomeni | T °C | DP °C | Um. % | Pres. hPa | Vis. km | Vento km/h | |
|---|---|---|---|---|---|---|---|---|
| Ieri h: 23:53 | Sereno | 23 | 21 | 88 | 1017 | 10 | N 0 | |
| Ieri h: 22:53 | Sereno | 24 | 21 | 83 | 1017 | 10 | N 0 | |
| Ieri h: 21:53 | Sereno | 26 | 22 | 78 | 1017 | 10 | S 9.3 | |
| Ieri h: 20:53 | Sereno | 26 | 22 | 78 | 1017 | 10 | S 7.4 | |
| Ieri h: 19:53 | Sereno | 28 | 22 | 69 | 1016 | 10 | S 11.1 | |
| Ieri h: 18:53 | Poco Nuvoloso | 32 | 21 | 52 | 1016 | 10 | S 13 | |
| Ieri h: 17:53 | Poco Nuvoloso | 34 | 21 | 46 | 1016 | 10 | S 14.8 | |
| Ieri h: 16:53 | Sereno | 36 | 20 | 39 | 1016 | 10 | S/SO 18.5 | |
| Ieri h: 15:53 | Sereno | 37 | 19 | 35 | 1016 | 10 | SO 24 | |
| Ieri h: 14:53 | Sereno | 37 | 20 | 37 | 1017 | 10 | SO 14.8 | |
| Ieri h: 13:53 | Poco Nuvoloso | 36 | 19 | 36 | 1017 | 10 | SO 20.3 | |
| Ieri h: 12:53 | Poco Nuvoloso | 36 | 20 | 39 | 1018 | 10 | SO 22.2 | |
| Ieri h: 11:53 | Sereno | 35 | 21 | 44 | 1018 | 10 | O/SO 18.5 | |
| Ieri h: 10:53 | Sereno | 33 | 22 | 52 | 1018 | 10 | SO 18.5 | |
| Ieri h: 09:53 | Sereno | 31 | 22 | 58 | 1019 | 10 | S/SO 11.1 | |
| Ieri h: 08:53 | Sereno | 28 | 22 | 69 | 1018 | 10 | S/SO 11.1 | |
| Ieri h: 07:53 | Sereno | 24 | 22 | 88 | 1018 | 10 | N 5.5 | |
| Ieri h: 06:53 | Sereno | 21 | 21 | 100 | 1018 | 13 | S 7.4 | |
| Ieri h: 05:53 | Sereno | 22 | 20 | 88 | 1017 | 10 | S 7.4 | |
| Ieri h: 04:53 | Sereno | 21 | 20 | 94 | 1017 | 10 | S 7.4 | |
| Ieri h: 03:53 | Sereno | 22 | 20 | 88 | 1017 | 10 | S/SE 7.4 | |
| Ieri h: 02:53 | Sereno | 22 | 19 | 83 | 1017 | 10 | S 9.3 | |
| Ieri h: 01:53 | Sereno | 22 | 20 | 88 | 1017 | 10 | S 9.3 | |
| Ieri h: 00:53 | Sereno | 22 | 19 | 83 | 1017 | 10 | S 9.3 | |



